Latest Weather Observations for Karratha

IDW60801

Issued at 9:32 am WST Tuesday 1 September 2015 (issued every 30 minutes, with the page automatically refreshed every 10 minutes)

About weather observations | Map of weather stations | Latest weather observations for WA | Other Formats
Station Details ID: 004083 Name: KARRATHA AERO Lat: -20.71 Lon: 116.77 Height: 5.3 m
Data from the previous 72 hours. | See also: Recent months at Karratha
Date/Time
WST
Temp
°C
App
Temp
°C
Dew
Point
Rel
Hum
%
Delta-T
°C
Wind Press
QNH
hPa
Press
MSL
hPa
Rain
since 9 am
mm
Dir
 
Spd
km/h
Gust
km/h
Spd
kts
Gust
kts
01/09:30am 25.4 20.9 4.0 25 10.6 SSE 17 26 9 14 1016.5 1016.5 0.0
01/09:00am 24.5 18.6 3.8 26 10.2 S 24 30 13 16 1016.3 1016.3 0.0
01/08:30am 23.3 17.4 3.8 28 9.5 S 24 30 13 16 1016.2 1016.2 0.0
01/08:00am 21.9 16.9 4.5 32 8.5 S 20 26 11 14 1016.1 1016.1 0.0
01/07:30am 20.8 16.3 4.4 34 7.9 SSW 17 22 9 12 1016.1 1016.1 0.0
01/07:00am 18.9 17.3 4.7 39 6.8 SE 2 9 1 5 1015.8 1015.8 0.0
01/06:30am 17.8 13.8 5.1 43 6.1 SSW 15 19 8 10 1015.2 1015.2 0.0
01/06:00am 16.4 12.9 5.4 48 5.3 SW 13 15 7 8 1014.8 1014.8 0.0
01/05:30am 16.8 12.9 5.4 47 5.5 SW 15 17 8 9 1014.7 1014.7 0.0
01/05:00am 16.8 13.0 5.7 48 5.4 SW 15 17 8 9 1014.7 1014.7 0.0
01/04:30am 16.3 12.6 6.4 52 4.8 SW 15 17 8 9 1014.5 1014.5 0.0
01/04:00am 16.7 13.2 7.1 53 4.8 SW 15 17 8 9 1014.5 1014.5 0.0
01/03:30am 18.1 14.6 8.7 54 4.9 WSW 17 20 9 11 1014.5 1014.5 0.0
01/03:00am 18.4 15.6 10.0 58 4.5 WSW 15 19 8 10 1014.5 1014.5 0.0
01/02:30am 19.0 15.8 11.1 60 4.3 WSW 19 22 10 12 1014.4 1014.4 0.0
01/02:00am 19.3 16.0 11.6 61 4.2 WSW 20 24 11 13 1014.5 1014.5 0.0
01/01:30am 19.9 16.3 11.9 60 4.4 WSW 22 26 12 14 1014.8 1014.8 0.0
01/01:00am 20.4 17.0 12.6 61 4.4 WSW 22 26 12 14 1015.1 1015.1 0.0
01/12:30am 20.8 17.6 13.0 61 4.4 WSW 22 26 12 14 1015.4 1015.4 0.0
01/12:00am 21.1 17.9 13.0 60 4.6 WSW 22 30 12 16 1015.5 1015.5 0.0
 
Date/Time
WST
Temp
°C
App
Temp
°C
Dew
Point
Rel
Hum
%
Delta-T
°C
Wind Press
QNH
hPa
Press
MSL
hPa
Rain
since 9 am
mm
Dir
 
Spd
km/h
Gust
km/h
Spd
kts
Gust
kts
31/11:30pm 21.5 17.6 13.4 60 4.7 WSW 26 32 14 17 1015.6 1015.6 0.0
31/11:00pm 21.8 18.6 14.2 62 4.4 WSW 24 32 13 17 1015.9 1015.9 0.0
31/10:30pm 21.7 19.4 15.8 69 3.5 W 22 30 12 16 1016.0 1016.0 0.0
31/10:00pm 21.8 19.5 15.6 68 3.7 WSW 22 32 12 17 1016.0 1016.0 0.0
31/09:30pm 22.1 18.7 15.9 68 3.7 W 28 33 15 18 1015.9 1015.9 0.0
31/09:00pm 22.4 18.5 16.4 69 3.6 W 32 39 17 21 1015.8 1015.8 0.0
31/08:30pm 22.6 18.7 16.4 68 3.8 W 32 39 17 21 1015.6 1015.6 0.0
31/08:00pm 22.9 19.4 16.4 67 4.0 W 30 37 16 20 1015.2 1015.2 0.0
31/07:30pm 23.2 19.9 17.0 68 3.8 W 30 37 16 20 1014.9 1014.9 0.0
31/07:00pm 23.4 19.7 16.9 67 4.0 W 32 35 17 19 1014.6 1014.6 0.0
31/06:30pm 23.8 19.8 16.8 65 4.3 W 33 41 18 22 1014.4 1014.4 0.0
31/06:00pm 24.3 19.1 15.5 58 5.3 W 37 44 20 24 1014.1 1014.1 0.0
31/05:30pm 25.3 20.4 15.3 54 6.0 W 35 41 19 22 1013.8 1013.8 0.0
31/05:00pm 26.3 21.2 14.7 48 7.0 W 35 43 19 23 1013.7 1013.7 0.0
31/04:30pm 26.3 20.3 14.4 48 7.1 W 39 46 21 25 1013.5 1013.5 0.0
31/04:00pm 26.8 22.1 15.8 51 6.7 W 35 43 19 23 1013.6 1013.6 0.0
31/03:30pm 26.9 21.5 15.0 48 7.2 W 37 44 20 24 1013.8 1013.8 0.0
31/03:00pm 28.1 23.1 14.0 42 8.4 W 33 41 18 22 1013.8 1013.8 0.0
31/02:30pm 29.2 24.2 13.4 38 9.4 W 32 39 17 21 1013.9 1013.9 0.0
31/02:00pm 28.9 24.1 13.9 39 9.0 W 32 39 17 21 1014.2 1014.2 0.0
31/01:30pm 29.1 25.2 13.3 37 9.4 WNW 26 33 14 18 1014.5 1014.5 0.0
31/01:00pm 28.2 24.4 14.8 44 8.1 W 28 35 15 19 1014.9 1014.9 0.0
31/12:30pm 29.2 25.8 13.8 39 9.2 W 24 32 13 17 1015.1 1015.1 0.0
31/12:00pm 29.1 25.9 9.8 30 10.8 WNW 17 22 9 12 1015.5 1015.5 0.0
31/11:30am 29.2 26.1 10.3 31 10.7 WNW 17 20 9 11 1015.8 1015.8 0.0
31/11:00am 28.9 25.6 9.6 30 10.8 WNW 17 20 9 11 1016.2 1016.2 0.0
31/10:30am 27.5 24.5 10.7 35 9.5 WNW 17 20 9 11 1016.5 1016.5 0.0
31/10:00am 25.8 23.6 13.3 46 7.3 WNW 17 20 9 11 1016.7 1016.7 0.0
31/09:30am 24.4 23.0 14.5 54 5.9 W 15 19 8 10 1016.8 1016.8 0.0
31/09:00am 24.0 22.9 14.4 55 5.7 WSW 13 19 7 10 1016.5 1016.5 0.0
31/08:30am 22.1 20.0 13.7 59 4.9 W 17 20 9 11 1016.4 1016.4 0.0
31/08:00am 21.1 18.7 12.8 59 4.7 WSW 17 20 9 11 1016.2 1016.2 0.0
31/07:30am 19.7 18.0 13.6 68 3.5 WSW 15 19 8 10 1016.0 1016.0 0.0
31/07:00am 18.1 17.0 14.2 78 2.2 WSW 13 15 7 8 1015.7 1015.7 0.0
31/06:30am 18.2 16.7 14.3 78 2.2 WSW 15 17 8 9 1015.5 1015.5 0.0
31/06:00am 18.1 16.6 14.2 78 2.2 WSW 15 20 8 11 1015.3 1015.3 0.0
31/05:30am 18.5 16.9 15.0 80 2.0 WSW 17 20 9 11 1015.0 1015.0 0.0
31/05:00am 18.5 17.0 15.4 82 1.8 WSW 17 20 9 11 1014.8 1014.8 0.0
31/04:30am 18.7 17.4 15.9 84 1.7 WSW 17 20 9 11 1014.7 1014.7 0.0
31/04:00am 19.4 17.4 16.4 83 1.8 WSW 22 26 12 14 1014.7 1014.7 0.0
31/03:30am 19.6 18.8 17.2 86 1.5 WSW 17 24 9 13 1014.9 1014.9 0.0
31/03:00am 19.8 18.9 17.8 88 1.2 WSW 19 22 10 12 1015.0 1015.0 0.0
31/02:30am 20.1 18.7 17.9 87 1.4 WSW 22 28 12 15 1015.2 1015.2 0.0
31/02:00am 20.4 18.8 18.3 88 1.3 WSW 24 30 13 16 1015.4 1015.4 0.0
31/01:30am 20.4 18.9 18.5 89 1.2 WSW 24 30 13 16 1015.7 1015.7 0.0
31/01:00am 20.5 19.5 18.8 90 1.1 WSW 22 26 12 14 1016.1 1016.1 0.0
31/12:30am 20.7 19.7 18.8 89 1.2 WSW 22 28 12 15 1016.4 1016.4 0.0
31/12:00am 21.0 19.6 18.8 87 1.4 WSW 24 30 13 16 1016.5 1016.5 0.0
 
Date/Time
WST
Temp
°C
App
Temp
°C
Dew
Point
Rel
Hum
%
Delta-T
°C
Wind Press
QNH
hPa
Press
MSL
hPa
Rain
since 9 am
mm
Dir
 
Spd
km/h
Gust
km/h
Spd
kts
Gust
kts
30/11:30pm 21.1 19.9 18.3 84 1.7 WSW 22 28 12 15 1016.6 1016.6 0.0
30/11:00pm 21.4 19.1 18.4 83 1.9 WSW 28 33 15 18 1016.7 1016.7 0.0
30/10:30pm 21.7 18.9 18.3 81 2.1 WSW 30 35 16 19 1016.8 1016.8 0.0
30/10:00pm 21.8 18.9 18.0 79 2.4 WSW 30 37 16 20 1016.6 1016.6 0.0
30/09:30pm 22.0 18.7 18.0 78 2.5 WSW 32 43 17 23 1016.6 1016.6 0.0
30/09:00pm 22.2 18.9 18.0 77 2.6 WSW 32 43 17 23 1016.5 1016.5 0.0
30/08:30pm 22.3 19.2 18.3 78 2.5 WSW 32 41 17 22 1016.4 1016.4 0.0
30/08:00pm 22.8 19.2 17.3 71 3.4 WSW 32 41 17 22 1016.0 1016.0 0.0
30/07:30pm 23.4 20.4 17.8 71 3.5 W 30 39 16 21 1015.6 1015.6 0.0
30/07:00pm 23.4 20.7 17.6 70 3.6 W 28 35 15 19 1015.4 1015.4 0.0
30/06:30pm 23.8 19.6 15.8 61 4.8 W 32 39 17 21 1015.1 1015.1 0.0
30/06:00pm 23.9 19.2 15.9 61 4.8 W 35 43 19 23 1015.0 1015.0 0.0
30/05:30pm 24.6 20.4 16.1 59 5.2 W 33 43 18 23 1014.9 1014.9 0.0
30/05:00pm 25.4 20.9 16.5 58 5.5 W 35 44 19 24 1014.8 1014.8 0.0
30/04:30pm 26.5 22.2 14.3 47 7.3 WNW 30 39 16 21 1014.7 1014.7 0.0
30/04:00pm 26.6 21.9 14.4 47 7.3 WNW 32 41 17 22 1014.7 1014.7 0.0
30/03:30pm 27.1 21.5 12.0 39 8.7 WNW 33 39 18 21 1014.6 1014.6 0.0
30/03:00pm 27.5 22.6 12.7 40 8.6 WNW 30 39 16 21 1014.8 1014.8 0.0
30/02:30pm 27.9 23.8 12.7 39 8.9 WNW 26 33 14 18 1015.1 1015.1 0.0
30/02:00pm 28.1 23.8 13.2 39 8.8 WNW 28 35 15 19 1015.2 1015.2 0.0
30/01:30pm 28.1 23.9 13.6 41 8.6 WNW 28 35 15 19 1015.5 1015.5 0.0
30/01:00pm 28.3 23.5 11.8 36 9.5 WNW 28 35 15 19 1015.8 1015.8 0.0
30/12:30pm 28.7 24.0 9.4 30 10.7 WNW 24 32 13 17 1016.3 1016.3 0.0
30/12:00pm 28.4 24.9 11.0 34 9.9 WNW 20 30 11 16 1016.6 1016.6 0.0
30/11:30am 28.0 24.1 10.7 34 9.8 WNW 22 28 12 15 1017.1 1017.1 0.0
30/11:00am 28.5 24.1 6.6 25 11.6 W 19 28 10 15 1017.6 1017.6 0.0
30/10:30am 27.8 25.7 9.6 32 10.1 NW 11 19 6 10 1017.9 1017.9 0.0
30/10:00am 27.0 25.3 9.8 34 9.5 NW 9 17 5 9 1018.1 1018.1 0.0
30/09:30am 25.4 24.4 13.3 47 7.1 W 11 15 6 8 1018.2 1018.2 0.0
30/09:00am 24.4 23.0 11.0 43 7.5 SSW 9 15 5 8 1018.1 1018.1 0.0
30/08:30am 23.1 20.9 12.1 50 6.2 SSW 15 24 8 13 1017.8 1017.8 0.0
30/08:00am 20.5 19.8 14.4 68 3.5 WSW 11 13 6 7 1017.7 1017.7 0.0
30/07:30am 19.2 18.6 14.5 74 2.7 WSW 11 17 6 9 1017.2 1017.2 0.0
30/07:00am 17.7 16.7 14.6 82 1.8 WSW 13 15 7 8 1016.7 1016.7 0.0
30/06:30am 17.2 15.8 14.5 84 1.6 WSW 15 19 8 10 1016.4 1016.4 0.0
30/06:00am 16.4 15.2 14.1 86 1.3 WSW 13 17 7 9 1016.1 1016.1 0.0
30/05:30am 17.1 15.4 14.6 85 1.4 WSW 17 19 9 10 1015.7 1015.7 0.0
30/05:00am 16.8 15.1 14.6 87 1.3 WSW 17 19 9 10 1015.6 1015.6 0.0
30/04:30am 16.6 15.7 14.8 89 1.0 WSW 13 15 7 8 1015.4 1015.4 0.0
30/04:00am 16.9 16.4 14.9 88 1.2 WSW 11 15 6 8 1015.3 1015.3 0.0
30/03:30am 17.0 16.3 15.3 90 1.0 WSW 13 15 7 8 1015.2 1015.2 0.0
30/03:00am 17.0 16.8 15.7 92 0.8 SW 11 13 6 7 1015.2 1015.2 0.0
30/02:30am 18.4 17.8 16.7 90 1.0 WSW 15 17 8 9 1015.2 1015.2 0.0
30/02:00am 18.7 18.3 17.2 91 0.9 WSW 15 19 8 10 1015.4 1015.4 0.0
30/01:30am 19.2 18.6 17.5 90 1.0 WSW 17 24 9 13 1015.6 1015.6 0.0
30/01:00am 19.6 18.7 17.7 89 1.2 WSW 19 24 10 13 1015.7 1015.7 0.0
30/12:30am 19.7 18.7 18.0 90 1.0 WSW 20 24 11 13 1015.7 1015.7 0.0
30/12:00am 20.1 18.7 18.0 88 1.3 WSW 22 28 12 15 1015.8 1015.8 0.0
 
Date/Time
WST
Temp
°C
App
Temp
°C
Dew
Point
Rel
Hum
%
Delta-T
°C
Wind Press
QNH
hPa
Press
MSL
hPa
Rain
since 9 am
mm
Dir
 
Spd
km/h
Gust
km/h
Spd
kts
Gust
kts
29/11:30pm 20.4 18.7 18.2 87 1.4 WSW 24 30 13 16 1016.0 1016.0 0.0
29/11:00pm 20.6 18.1 18.0 85 1.6 WSW 28 35 15 19 1016.1 1016.1 0.0
29/10:30pm 20.6 18.3 17.6 83 1.8 WSW 26 35 14 19 1016.2 1016.2 0.0
29/10:00pm 20.9 19.3 17.5 81 2.1 WSW 22 30 12 16 1016.3 1016.3 0.0
29/09:30pm 21.5 18.5 17.7 79 2.3 WSW 30 35 16 19 1016.2 1016.2 0.0
29/09:00pm 21.8 18.3 17.4 76 2.7 W 32 35 17 19 1016.1 1016.1 0.0
29/08:30pm 21.9 19.1 18.1 79 2.4 W 30 37 16 20 1015.8 1015.8 0.0
29/08:00pm 22.0 18.8 18.2 79 2.4 WSW 32 39 17 21 1015.4 1015.4 0.0
29/07:30pm 22.3 19.1 18.5 79 2.4 W 33 41 18 22 1015.1 1015.1 0.0
29/07:00pm 22.5 19.7 18.1 76 2.7 W 30 39 16 21 1014.8 1014.8 0.0
29/06:30pm 22.6 19.2 17.7 74 3.0 W 32 37 17 20 1014.5 1014.5 0.0
29/06:00pm 23.0 19.5 16.5 67 4.0 W 30 37 16 20 1014.1 1014.1 0.0
29/05:30pm 23.4 20.2 16.2 64 4.4 WNW 28 33 15 18 1013.9 1013.9 0.0
29/05:00pm 23.9 20.5 16.7 64 4.4 WNW 30 35 16 19 1013.7 1013.7 0.0
29/04:30pm 24.3 20.7 16.3 61 4.9 WNW 30 35 16 19 1013.6 1013.6 0.0
29/04:00pm 24.6 20.8 15.8 58 5.3 WNW 30 35 16 19 1013.5 1013.5 0.0
29/03:30pm 24.8 21.5 16.0 58 5.4 WNW 28 35 15 19 1013.5 1013.5 0.0
29/03:00pm 25.5 21.3 15.8 55 5.9 WNW 32 37 17 20 1013.6 1013.6 0.0
29/02:30pm 25.3 21.7 15.3 54 6.0 WNW 28 35 15 19 1013.9 1013.9 0.0
29/02:00pm 25.6 22.2 14.7 51 6.5 WNW 26 32 14 17 1014.2 1014.2 0.0
29/01:30pm 25.4 21.9 14.5 51 6.5 WNW 26 32 14 17 1014.5 1014.5 0.0
29/01:00pm 26.2 23.1 14.6 48 6.9 WNW 24 30 13 16 1015.2 1015.2 0.0
29/12:30pm 25.5 22.2 14.0 49 6.8 WNW 24 32 13 17 1015.5 1015.5 0.0
29/12:00pm 25.7 22.9 13.2 46 7.3 WNW 20 26 11 14 1015.9 1015.9 0.0
29/11:30am 25.5 22.8 13.4 47 7.1 WNW 20 24 11 13 1016.2 1016.2 0.0
29/11:00am 25.2 22.5 13.4 48 6.9 W 20 28 11 15 1016.8 1016.8 0.0
29/10:30am 24.9 22.2 13.5 49 6.7 W 20 28 11 15 1017.3 1017.3 0.0
29/10:00am 24.5 21.5 13.7 51 6.3 W 22 28 12 15 1017.5 1017.5 0.0

Other Formats:

Comma delimited format used in spreadsheet applications
http://www.bom.gov.au/fwo/IDW60801/IDW60801.95307.axf

JavaScript Object Notation format (JSON) in row-major order
http://www.bom.gov.au/fwo/IDW60801/IDW60801.95307.json